createdAt,value
2018-11-22T12:17:56.442Z,1.90
2018-11-22T12:22:59.792Z,1.90
2018-11-22T12:28:03.314Z,1.90
2018-11-22T12:33:37.461Z,1.90
2018-11-22T12:38:40.716Z,1.90
2018-11-22T12:43:44.057Z,1.90
2018-11-22T12:48:47.176Z,1.90
2018-11-22T12:53:50.300Z,1.90
2018-11-22T12:58:53.432Z,1.90
2018-11-22T13:03:56.572Z,1.90
2018-11-22T13:08:59.754Z,1.80
2018-11-22T13:14:03.987Z,1.90
2018-11-22T13:19:07.073Z,1.90
2018-11-22T13:24:10.231Z,1.90
2018-11-22T13:29:13.437Z,1.80
2018-11-22T13:34:16.572Z,1.80
2018-11-22T13:39:19.666Z,1.70
2018-11-22T13:44:22.937Z,1.70
2018-11-22T13:49:26.037Z,1.70
2018-11-22T13:54:29.169Z,1.70
2018-11-22T13:59:32.289Z,1.70
2018-11-22T14:04:35.395Z,1.70
2018-11-22T14:09:38.520Z,1.70
2018-11-22T14:14:41.628Z,1.60
2018-11-22T14:19:44.715Z,1.60
2018-11-22T14:24:47.826Z,1.60
2018-11-22T14:29:50.904Z,1.60
2018-11-22T14:35:00.386Z,1.50
2018-11-22T14:39:57.380Z,1.50
2018-11-22T14:45:00.444Z,1.50
2018-11-22T14:50:07.595Z,1.50
2018-11-22T14:55:11.383Z,1.50
2018-11-22T15:00:15.484Z,1.50
2018-11-22T15:05:18.580Z,1.50
2018-11-22T15:10:21.684Z,1.50
2018-11-22T15:15:25.854Z,1.60
2018-11-22T15:20:28.946Z,1.50
2018-11-22T15:25:32.040Z,1.50
2018-11-22T15:30:35.134Z,1.50
2018-11-22T15:35:38.221Z,1.50
2018-11-22T15:40:41.337Z,1.40
2018-11-22T15:45:44.453Z,1.40
2018-11-22T15:50:47.610Z,1.40
2018-11-22T15:55:50.721Z,1.40
2018-11-22T16:00:53.845Z,1.40
2018-11-22T16:05:56.953Z,1.40
2018-11-22T16:11:00.068Z,1.40
2018-11-22T16:16:03.177Z,1.40
2018-11-22T16:21:06.522Z,1.40
2018-11-22T16:26:09.652Z,1.30
2018-11-22T16:31:12.724Z,1.30
2018-11-22T16:36:15.914Z,1.30
2018-11-22T16:41:19.039Z,1.30
2018-11-22T16:46:22.159Z,1.20
2018-11-22T16:51:25.304Z,1.20
2018-11-22T16:56:28.432Z,1.20
2018-11-22T17:01:31.620Z,1.20
2018-11-22T17:06:34.773Z,1.20
2018-11-22T17:11:38.388Z,1.20
2018-11-22T17:16:41.591Z,1.20
2018-11-22T17:21:45.697Z,1.20
2018-11-22T17:43:12.572Z,1.10
2018-11-22T18:04:39.051Z,1.00
2018-11-22T18:09:42.421Z,1.00
2018-11-22T18:14:45.526Z,0.90
2018-11-22T18:19:48.634Z,0.90
2018-11-22T18:41:17.018Z,1.00
2018-11-22T18:46:20.178Z,1.00
2018-11-22T19:07:49.312Z,1.00
2018-11-22T19:12:53.831Z,0.90
2018-11-22T19:17:57.311Z,1.00
2018-11-22T19:23:01.342Z,1.00
2018-11-22T19:28:05.161Z,1.00
2018-11-22T19:49:33.937Z,1.00
2018-11-22T19:54:37.270Z,1.00
2018-11-22T19:59:40.555Z,1.00
2018-11-22T20:04:43.797Z,1.00
2018-11-22T20:09:46.921Z,1.00
2018-11-22T20:31:13.501Z,1.00
2018-11-22T20:52:39.777Z,1.00
2018-11-22T21:14:08.404Z,0.90
2018-11-22T21:35:37.042Z,0.80
2018-11-22T21:40:40.248Z,0.80
2018-11-22T21:45:43.522Z,0.80
2018-11-22T21:50:46.641Z,0.80
2018-11-22T21:55:49.825Z,0.80
2018-11-22T22:00:52.927Z,0.80
2018-11-22T22:05:56.019Z,0.80
2018-11-22T22:10:59.279Z,0.80
2018-11-22T22:16:02.537Z,0.80
2018-11-22T22:21:05.857Z,0.80
2018-11-22T22:26:08.936Z,0.80
2018-11-22T22:31:12.045Z,0.80
2018-11-22T22:36:15.154Z,0.80
2018-11-22T22:41:18.261Z,0.80
2018-11-22T22:46:21.363Z,0.90
2018-11-22T22:51:24.470Z,0.90
2018-11-22T22:56:27.668Z,0.80
2018-11-22T23:01:30.786Z,0.80
2018-11-22T23:06:33.882Z,0.80
2018-11-22T23:11:37.030Z,0.90
2018-11-22T23:16:40.132Z,0.80
2018-11-22T23:21:43.274Z,0.80
2018-11-22T23:26:46.395Z,0.90
2018-11-22T23:31:49.512Z,0.90
2018-11-22T23:36:52.641Z,0.90
2018-11-22T23:41:55.858Z,0.90
2018-11-22T23:46:59.001Z,0.90
2018-11-22T23:52:02.131Z,0.90
2018-11-22T23:57:05.565Z,0.90
